Tipton, United Kingdom
Current Conditions -  °F | °C
As of 4:50 PM on Friday 24 Oct 2014 (Local Time) from EGBB Reporting Station
Light Rain Light Rain  
Wind Chill: 55°   Ceiling: 900
Heat Index: 55°   Visibility: 6mi
Dew Point: 54°   Wind: 14mph
Humidity: 94%   Direction: 300°WNW
Pressure: 29.85"   Gusts: NA
Location:  52.54°N, 2.04°W
Report Text: EGBB 241550Z 30012KT 9999 4000SE -RA FEW005 BKN009 BKN023CB 13/12 Q1011 REDZ
Loading
Personal Weather Stations






























Interactive Weather Map New forecast layout! Learn more

10-Day Weather Forecast

Advertisements
Track Severe Weather on mobile